sensor_id;sensor_type;location;lat;lon;timestamp;pressure;altitude;pressure_sealevel;temperature
70668;BMP280;58242;51.250;-1.118;2023-03-24T00:01:50;98252.88;;;14.01
70668;BMP280;58242;51.250;-1.118;2023-03-24T00:04:16;98252.50;;;13.99
70668;BMP280;58242;51.250;-1.118;2023-03-24T00:06:41;98262.09;;;13.97
70668;BMP280;58242;51.250;-1.118;2023-03-24T00:09:08;98259.03;;;13.95
70668;BMP280;58242;51.250;-1.118;2023-03-24T00:11:33;98266.34;;;13.94
70668;BMP280;58242;51.250;-1.118;2023-03-24T00:14:00;98262.88;;;13.94
70668;BMP280;58242;51.250;-1.118;2023-03-24T00:16:25;98272.09;;;13.93
70668;BMP280;58242;51.250;-1.118;2023-03-24T00:18:51;98277.09;;;13.94
70668;BMP280;58242;51.250;-1.118;2023-03-24T00:21:17;98274.78;;;13.93
70668;BMP280;58242;51.250;-1.118;2023-03-24T00:23:46;98270.94;;;13.90
70668;BMP280;58242;51.250;-1.118;2023-03-24T00:26:12;98272.88;;;13.90
70668;BMP280;58242;51.250;-1.118;2023-03-24T00:28:45;98278.25;;;13.90
70668;BMP280;58242;51.250;-1.118;2023-03-24T00:31:12;98285.13;;;13.87
70668;BMP280;58242;51.250;-1.118;2023-03-24T00:33:41;98290.13;;;13.86
70668;BMP280;58242;51.250;-1.118;2023-03-24T00:36:09;98290.13;;;13.86
70668;BMP280;58242;51.250;-1.118;2023-03-24T00:38:36;98284.75;;;13.86
70668;BMP280;58242;51.250;-1.118;2023-03-24T00:41:04;98286.31;;;13.86
70668;BMP280;58242;51.250;-1.118;2023-03-24T00:43:29;98283.22;;;13.85
70668;BMP280;58242;51.250;-1.118;2023-03-24T00:46:04;98286.69;;;13.82
70668;BMP280;58242;51.250;-1.118;2023-03-24T00:48:31;98293.59;;;13.79
70668;BMP280;58242;51.250;-1.118;2023-03-24T00:50:56;98301.22;;;13.77
70668;BMP280;58242;51.250;-1.118;2023-03-24T00:53:22;98306.59;;;13.77
70668;BMP280;58242;51.250;-1.118;2023-03-24T00:55:50;98304.69;;;13.74
70668;BMP280;58242;51.250;-1.118;2023-03-24T00:58:17;98310.44;;;13.73
70668;BMP280;58242;51.250;-1.118;2023-03-24T01:00:50;98315.03;;;13.72
70668;BMP280;58242;51.250;-1.118;2023-03-24T01:03:16;98321.56;;;13.68
70668;BMP280;58242;51.250;-1.118;2023-03-24T01:05:43;98320.81;;;13.68
70668;BMP280;58242;51.250;-1.118;2023-03-24T01:08:16;98324.22;;;13.65
70668;BMP280;58242;51.250;-1.118;2023-03-24T01:10:46;98323.84;;;13.63
70668;BMP280;58242;51.250;-1.118;2023-03-24T01:13:26;98331.13;;;13.62
70668;BMP280;58242;51.250;-1.118;2023-03-24T01:15:52;98330.38;;;13.62
70668;BMP280;58242;51.250;-1.118;2023-03-24T01:18:18;98336.13;;;13.60
70668;BMP280;58242;51.250;-1.118;2023-03-24T01:20:46;98345.72;;;13.58
70668;BMP280;58242;51.250;-1.118;2023-03-24T01:23:15;98357.59;;;13.57
70668;BMP280;58242;51.250;-1.118;2023-03-24T01:25:41;98354.53;;;13.55
70668;BMP280;58242;51.250;-1.118;2023-03-24T01:28:13;98354.53;;;13.55
70668;BMP280;58242;51.250;-1.118;2023-03-24T01:30:38;98362.59;;;13.55
70668;BMP280;58242;51.250;-1.118;2023-03-24T01:33:04;98354.91;;;13.53
70668;BMP280;58242;51.250;-1.118;2023-03-24T01:35:30;98366.03;;;13.55
70668;BMP280;58242;51.250;-1.118;2023-03-24T01:37:56;98361.44;;;13.52
70668;BMP280;58242;51.250;-1.118;2023-03-24T01:40:27;98362.19;;;13.53
70668;BMP280;58242;51.250;-1.118;2023-03-24T01:42:53;98359.13;;;13.51
70668;BMP280;58242;51.250;-1.118;2023-03-24T01:45:39;98367.53;;;13.50
70668;BMP280;58242;51.250;-1.118;2023-03-24T01:48:48;98364.50;;;13.48
70668;BMP280;58242;51.250;-1.118;2023-03-24T01:51:27;98372.13;;;13.46
70668;BMP280;58242;51.250;-1.118;2023-03-24T01:54:08;98369.84;;;13.44
70668;BMP280;58242;51.250;-1.118;2023-03-24T01:56:38;98377.50;;;13.42
70668;BMP280;58242;51.250;-1.118;2023-03-24T01:59:12;98372.91;;;13.39
70668;BMP280;58242;51.250;-1.118;2023-03-24T02:01:38;98378.28;;;13.39
70668;BMP280;58242;51.250;-1.118;2023-03-24T02:04:05;98379.41;;;13.38
70668;BMP280;58242;51.250;-1.118;2023-03-24T02:06:33;98385.19;;;13.37
70668;BMP280;58242;51.250;-1.118;2023-03-24T02:08:59;98375.59;;;13.36
70668;BMP280;58242;51.250;-1.118;2023-03-24T02:11:29;98390.91;;;13.35
70668;BMP280;58242;51.250;-1.118;2023-03-24T02:13:55;98395.13;;;13.33
70668;BMP280;58242;51.250;-1.118;2023-03-24T02:16:43;98395.50;;;13.32
70668;BMP280;58242;51.250;-1.118;2023-03-24T02:19:44;98396.63;;;13.27
70668;BMP280;58242;51.250;-1.118;2023-03-24T02:33:28;98402.75;;;13.14
70668;BMP280;58242;51.250;-1.118;2023-03-24T02:36:50;98411.91;;;13.13
70668;BMP280;58242;51.250;-1.118;2023-03-24T02:42:22;98414.97;;;13.08
70668;BMP280;58242;51.250;-1.118;2023-03-24T02:50:01;98413.06;;;13.09
70668;BMP280;58242;51.250;-1.118;2023-03-24T02:52:39;98414.97;;;13.08
70668;BMP280;58242;51.250;-1.118;2023-03-24T02:55:18;98415.38;;;13.10
70668;BMP280;58242;51.250;-1.118;2023-03-24T02:58:02;98415.38;;;13.14
70668;BMP280;58242;51.250;-1.118;2023-03-24T03:00:43;98409.66;;;13.18
70668;BMP280;58242;51.250;-1.118;2023-03-24T03:03:29;98411.22;;;13.26
70668;BMP280;58242;51.250;-1.118;2023-03-24T03:06:05;98415.81;;;13.33
70668;BMP280;58242;51.250;-1.118;2023-03-24T03:08:33;98418.53;;;13.39
70668;BMP280;58242;51.250;-1.118;2023-03-24T03:11:02;98424.31;;;13.48
70668;BMP280;58242;51.250;-1.118;2023-03-24T03:13:33;98420.88;;;13.58
70668;BMP280;58242;51.250;-1.118;2023-03-24T03:16:03;98428.19;;;13.68
70668;BMP280;58242;51.250;-1.118;2023-03-24T03:18:39;98424.38;;;13.75
70668;BMP280;58242;51.250;-1.118;2023-03-24T03:21:14;98429.38;;;13.84
70668;BMP280;58242;51.250;-1.118;2023-03-24T03:24:05;98429.38;;;13.87
70668;BMP280;58242;51.250;-1.118;2023-03-24T03:26:31;98427.47;;;13.91
70668;BMP280;58242;51.250;-1.118;2023-03-24T03:29:02;98429.41;;;13.94
70668;BMP280;58242;51.250;-1.118;2023-03-24T03:31:33;98427.84;;;13.96
70668;BMP280;58242;51.250;-1.118;2023-03-24T03:34:21;98427.09;;;13.92
70668;BMP280;58242;51.250;-1.118;2023-03-24T03:37:05;98419.81;;;13.89
70668;BMP280;58242;51.250;-1.118;2023-03-24T03:39:34;98427.09;;;13.86
70668;BMP280;58242;51.250;-1.118;2023-03-24T03:42:02;98429.00;;;13.82
70668;BMP280;58242;51.250;-1.118;2023-03-24T03:44:29;98431.31;;;13.83
70668;BMP280;58242;51.250;-1.118;2023-03-24T03:46:55;98435.50;;;13.84
70668;BMP280;58242;51.250;-1.118;2023-03-24T03:49:20;98433.59;;;13.81
70668;BMP280;58242;51.250;-1.118;2023-03-24T03:51:46;98437.78;;;13.79
70668;BMP280;58242;51.250;-1.118;2023-03-24T03:54:15;98433.56;;;13.78
70668;BMP280;58242;51.250;-1.118;2023-03-24T03:56:40;98435.84;;;13.76
70668;BMP280;58242;51.250;-1.118;2023-03-24T03:59:06;98437.03;;;13.71
70668;BMP280;58242;51.250;-1.118;2023-03-24T04:01:34;98429.69;;;13.68
70668;BMP280;58242;51.250;-1.118;2023-03-24T04:26:29;98449.91;;;13.25
70668;BMP280;58242;51.250;-1.118;2023-03-24T04:29:23;98441.84;;;13.18
70668;BMP280;58242;51.250;-1.118;2023-03-24T04:31:54;98441.84;;;13.15
70668;BMP280;58242;51.250;-1.118;2023-03-24T04:34:34;98438.72;;;13.10
70668;BMP280;58242;51.250;-1.118;2023-03-24T04:37:26;98441.78;;;13.05
70668;BMP280;58242;51.250;-1.118;2023-03-24T04:39:53;98452.50;;;13.01
70668;BMP280;58242;51.250;-1.118;2023-03-24T04:42:29;98452.09;;;13.00
70668;BMP280;58242;51.250;-1.118;2023-03-24T04:44:56;98449.41;;;12.96
70668;BMP280;58242;51.250;-1.118;2023-03-24T04:47:25;98447.09;;;12.95
70668;BMP280;58242;51.250;-1.118;2023-03-24T04:50:00;98451.66;;;12.91
70668;BMP280;58242;51.250;-1.118;2023-03-24T04:52:26;98452.44;;;12.88
70668;BMP280;58242;51.250;-1.118;2023-03-24T04:54:52;98461.97;;;12.85
70668;BMP280;58242;51.250;-1.118;2023-03-24T04:57:17;98467.72;;;12.84
70668;BMP280;58242;51.250;-1.118;2023-03-24T04:59:42;98453.13;;;12.82
70668;BMP280;58242;51.250;-1.118;2023-03-24T05:02:08;98450.06;;;12.80
70668;BMP280;58242;51.250;-1.118;2023-03-24T05:04:33;98463.84;;;12.78
70668;BMP280;58242;51.250;-1.118;2023-03-24T05:07:01;98466.91;;;12.77
70668;BMP280;58242;51.250;-1.118;2023-03-24T05:09:27;98470.75;;;12.76
70668;BMP280;58242;51.250;-1.118;2023-03-24T05:11:55;98472.66;;;12.75
70668;BMP280;58242;51.250;-1.118;2023-03-24T05:14:21;98483.00;;;12.77
70668;BMP280;58242;51.250;-1.118;2023-03-24T05:16:46;98475.31;;;12.75
70668;BMP280;58242;51.250;-1.118;2023-03-24T05:19:12;98487.19;;;12.74
70668;BMP280;58242;51.250;-1.118;2023-03-24T05:21:37;98487.19;;;12.74
70668;BMP280;58242;51.250;-1.118;2023-03-24T05:24:03;98482.97;;;12.73
70668;BMP280;58242;51.250;-1.118;2023-03-24T05:26:28;98488.34;;;12.73
70668;BMP280;58242;51.250;-1.118;2023-03-24T05:28:54;98488.34;;;12.73
70668;BMP280;58242;51.250;-1.118;2023-03-24T05:31:20;98484.91;;;12.73
70668;BMP280;58242;51.250;-1.118;2023-03-24T05:33:45;98489.50;;;12.76
70668;BMP280;58242;51.250;-1.118;2023-03-24T05:36:11;98489.88;;;12.78
70668;BMP280;58242;51.250;-1.118;2023-03-24T05:38:37;98491.84;;;12.81
70668;BMP280;58242;51.250;-1.118;2023-03-24T05:41:02;98489.53;;;12.82
70668;BMP280;58242;51.250;-1.118;2023-03-24T05:43:28;98498.75;;;12.85
70668;BMP280;58242;51.250;-1.118;2023-03-24T05:45:53;98498.38;;;12.86
70668;BMP280;58242;51.250;-1.118;2023-03-24T05:48:20;98503.75;;;12.90
70668;BMP280;58242;51.250;-1.118;2023-03-24T05:50:45;98492.28;;;12.93
70668;BMP280;58242;51.250;-1.118;2023-03-24T05:53:11;98496.94;;;12.99
70668;BMP280;58242;51.250;-1.118;2023-03-24T05:55:36;98499.25;;;13.04
70668;BMP280;58242;51.250;-1.118;2023-03-24T05:58:02;98504.63;;;13.07
70668;BMP280;58242;51.250;-1.118;2023-03-24T06:00:28;98499.28;;;13.11
70668;BMP280;58242;51.250;-1.118;2023-03-24T06:02:55;98494.31;;;13.16
70668;BMP280;58242;51.250;-1.118;2023-03-24T06:05:21;98497.41;;;13.18
70668;BMP280;58242;51.250;-1.118;2023-03-24T06:07:46;98496.63;;;13.17
70668;BMP280;58242;51.250;-1.118;2023-03-24T06:10:11;98493.59;;;13.19
70668;BMP280;58242;51.250;-1.118;2023-03-24T06:12:39;98495.50;;;13.22
70668;BMP280;58242;51.250;-1.118;2023-03-24T06:15:05;98500.47;;;13.23
70668;BMP280;58242;51.250;-1.118;2023-03-24T06:17:30;98505.13;;;13.26
70668;BMP280;58242;51.250;-1.118;2023-03-24T06:19:56;98501.66;;;13.26
70668;BMP280;58242;51.250;-1.118;2023-03-24T06:22:27;98500.13;;;13.25
70668;BMP280;58242;51.250;-1.118;2023-03-24T06:24:53;98495.53;;;13.25
70668;BMP280;58242;51.250;-1.118;2023-03-24T06:27:21;98504.72;;;13.24
70668;BMP280;58242;51.250;-1.118;2023-03-24T06:29:49;98498.56;;;13.24
70668;BMP280;58242;51.250;-1.118;2023-03-24T06:32:18;98504.72;;;13.24
70668;BMP280;58242;51.250;-1.118;2023-03-24T06:34:43;98499.72;;;13.23
70668;BMP280;58242;51.250;-1.118;2023-03-24T06:37:09;98506.25;;;13.25
70668;BMP280;58242;51.250;-1.118;2023-03-24T06:39:34;98506.63;;;13.27
70668;BMP280;58242;51.250;-1.118;2023-03-24T06:41:59;98517.78;;;13.29
70668;BMP280;58242;51.250;-1.118;2023-03-24T06:44:25;98512.00;;;13.31
70668;BMP280;58242;51.250;-1.118;2023-03-24T06:46:50;98508.59;;;13.34
70668;BMP280;58242;51.250;-1.118;2023-03-24T06:49:15;98508.63;;;13.37
70668;BMP280;58242;51.250;-1.118;2023-03-24T06:51:41;98510.91;;;13.38
70668;BMP280;58242;51.250;-1.118;2023-03-24T06:54:06;98512.47;;;13.43
70668;BMP280;58242;51.250;-1.118;2023-03-24T06:56:31;98510.19;;;13.48
70668;BMP280;58242;51.250;-1.118;2023-03-24T06:58:59;98502.53;;;13.53
70668;BMP280;58242;51.250;-1.118;2023-03-24T07:01:24;98517.13;;;13.63
70668;BMP280;58242;51.250;-1.118;2023-03-24T07:03:50;98520.25;;;13.71
70668;BMP280;58242;51.250;-1.118;2023-03-24T07:06:16;98524.53;;;13.79
70668;BMP280;58242;51.250;-1.118;2023-03-24T07:08:42;98523.78;;;13.89
70668;BMP280;58242;51.250;-1.118;2023-03-24T07:11:09;98520.72;;;14.01
70668;BMP280;58242;51.250;-1.118;2023-03-24T07:13:35;98524.97;;;14.19
70668;BMP280;58242;51.250;-1.118;2023-03-24T07:16:00;98523.88;;;14.43
70668;BMP280;58242;51.250;-1.118;2023-03-24T07:18:25;98517.69;;;14.77
70668;BMP280;58242;51.250;-1.118;2023-03-24T07:20:51;98516.47;;;15.15
70668;BMP280;58242;51.250;-1.118;2023-03-24T07:23:16;98520.97;;;15.56
70668;BMP280;58242;51.250;-1.118;2023-03-24T07:25:41;98506.16;;;15.97
70668;BMP280;58242;51.250;-1.118;2023-03-24T07:28:07;98506.72;;;16.28
70668;BMP280;58242;51.250;-1.118;2023-03-24T07:30:33;98519.25;;;16.52
70668;BMP280;58242;51.250;-1.118;2023-03-24T07:33:00;98510.59;;;16.70
70668;BMP280;58242;51.250;-1.118;2023-03-24T07:35:27;98500.06;;;16.86
70668;BMP280;58242;51.250;-1.118;2023-03-24T07:37:56;98512.97;;;17.08
70668;BMP280;58242;51.250;-1.118;2023-03-24T07:40:21;98504.66;;;17.28
70668;BMP280;58242;51.250;-1.118;2023-03-24T07:42:47;98507.19;;;17.42
70668;BMP280;58242;51.250;-1.118;2023-03-24T07:45:12;98510.09;;;17.57
70668;BMP280;58242;51.250;-1.118;2023-03-24T07:47:38;98514.47;;;17.77
70668;BMP280;58242;51.250;-1.118;2023-03-24T07:50:07;98520.53;;;17.88
70668;BMP280;58242;51.250;-1.118;2023-03-24T07:52:37;98515.44;;;17.93
70668;BMP280;58242;51.250;-1.118;2023-03-24T07:55:03;98525.78;;;17.98
70668;BMP280;58242;51.250;-1.118;2023-03-24T07:57:28;98520.34;;;18.01
70668;BMP280;58242;51.250;-1.118;2023-03-24T07:59:54;98528.88;;;18.00
70668;BMP280;58242;51.250;-1.118;2023-03-24T08:02:19;98527.69;;;18.01
70668;BMP280;58242;51.250;-1.118;2023-03-24T08:04:44;98533.34;;;18.10
70668;BMP280;58242;51.250;-1.118;2023-03-24T08:07:11;98534.78;;;18.17
70668;BMP280;58242;51.250;-1.118;2023-03-24T08:09:38;98532.50;;;18.16
70668;BMP280;58242;51.250;-1.118;2023-03-24T08:12:04;98549.16;;;18.11
70668;BMP280;58242;51.250;-1.118;2023-03-24T08:14:29;98533.72;;;18.12
70668;BMP280;58242;51.250;-1.118;2023-03-24T08:16:55;98537.34;;;18.28
70668;BMP280;58242;51.250;-1.118;2023-03-24T08:19:21;98532.03;;;18.47
70668;BMP280;58242;51.250;-1.118;2023-03-24T08:21:46;98538.63;;;18.71
70668;BMP280;58242;51.250;-1.118;2023-03-24T08:24:11;98532.81;;;18.95
70668;BMP280;58242;51.250;-1.118;2023-03-24T08:26:37;98523.72;;;19.05
70668;BMP280;58242;51.250;-1.118;2023-03-24T08:29:02;98527.69;;;19.19
70668;BMP280;58242;51.250;-1.118;2023-03-24T08:31:32;98527.06;;;19.53
70668;BMP280;58242;51.250;-1.118;2023-03-24T08:33:58;98518.84;;;19.76
70668;BMP280;58242;51.250;-1.118;2023-03-24T08:36:24;98533.56;;;19.94
70668;BMP280;58242;51.250;-1.118;2023-03-24T08:38:54;98520.22;;;20.37
70668;BMP280;58242;51.250;-1.118;2023-03-24T08:41:21;98524.91;;;20.83
70668;BMP280;58242;51.250;-1.118;2023-03-24T08:43:54;98530.19;;;21.33
70668;BMP280;58242;51.250;-1.118;2023-03-24T08:46:20;98533.13;;;21.94
70668;BMP280;58242;51.250;-1.118;2023-03-24T08:48:46;98539.19;;;22.50
70668;BMP280;58242;51.250;-1.118;2023-03-24T08:51:16;98538.44;;;22.86
70668;BMP280;58242;51.250;-1.118;2023-03-24T08:53:41;98552.19;;;23.28
70668;BMP280;58242;51.250;-1.118;2023-03-24T08:56:07;98555.03;;;23.57
70668;BMP280;58242;51.250;-1.118;2023-03-24T08:58:33;98540.53;;;23.81
70668;BMP280;58242;51.250;-1.118;2023-03-24T09:00:58;98554.81;;;23.85
70668;BMP280;58242;51.250;-1.118;2023-03-24T09:03:24;98563.72;;;23.65
70668;BMP280;58242;51.250;-1.118;2023-03-24T09:05:54;98563.84;;;23.40
70668;BMP280;58242;51.250;-1.118;2023-03-24T09:08:21;98582.28;;;23.36
70668;BMP280;58242;51.250;-1.118;2023-03-24T09:10:46;98575.13;;;23.51
70668;BMP280;58242;51.250;-1.118;2023-03-24T09:13:12;98569.81;;;23.48
70668;BMP280;58242;51.250;-1.118;2023-03-24T09:15:37;98578.50;;;23.55
70668;BMP280;58242;51.250;-1.118;2023-03-24T09:18:03;98581.19;;;23.88
70668;BMP280;58242;51.250;-1.118;2023-03-24T09:20:29;98573.00;;;24.30
70668;BMP280;58242;51.250;-1.118;2023-03-24T09:22:54;98574.72;;;24.66
70668;BMP280;58242;51.250;-1.118;2023-03-24T09:25:22;98578.78;;;25.00
70668;BMP280;58242;51.250;-1.118;2023-03-24T09:27:47;98591.47;;;25.23
70668;BMP280;58242;51.250;-1.118;2023-03-24T09:30:15;98594.69;;;25.48
70668;BMP280;58242;51.250;-1.118;2023-03-24T09:32:40;98581.06;;;25.83
70668;BMP280;58242;51.250;-1.118;2023-03-24T09:35:06;98586.50;;;26.01
70668;BMP280;58242;51.250;-1.118;2023-03-24T09:37:33;98593.53;;;26.10
70668;BMP280;58242;51.250;-1.118;2023-03-24T09:39:59;98587.44;;;26.15
70668;BMP280;58242;51.250;-1.118;2023-03-24T09:42:28;98583.59;;;26.22
70668;BMP280;58242;51.250;-1.118;2023-03-24T09:44:56;98592.25;;;26.46
70668;BMP280;58242;51.250;-1.118;2023-03-24T09:47:26;98592.03;;;26.67
70668;BMP280;58242;51.250;-1.118;2023-03-24T09:49:54;98583.72;;;26.85
70668;BMP280;58242;51.250;-1.118;2023-03-24T09:52:31;98587.81;;;26.89
70668;BMP280;58242;51.250;-1.118;2023-03-24T09:54:58;98593.53;;;27.09
70668;BMP280;58242;51.250;-1.118;2023-03-24T09:57:37;98598.66;;;27.47
70668;BMP280;58242;51.250;-1.118;2023-03-24T10:00:23;98597.13;;;28.06
70668;BMP280;58242;51.250;-1.118;2023-03-24T10:02:50;98597.84;;;28.29
70668;BMP280;58242;51.250;-1.118;2023-03-24T10:05:22;98597.25;;;28.39
70668;BMP280;58242;51.250;-1.118;2023-03-24T10:07:56;98588.44;;;28.49
70668;BMP280;58242;51.250;-1.118;2023-03-24T10:10:39;98596.94;;;28.09
70668;BMP280;58242;51.250;-1.118;2023-03-24T10:13:19;98576.88;;;28.17
70668;BMP280;58242;51.250;-1.118;2023-03-24T10:15:51;98595.72;;;28.24
70668;BMP280;58242;51.250;-1.118;2023-03-24T10:20:56;98586.91;;;28.20
70668;BMP280;58242;51.250;-1.118;2023-03-24T10:26:40;98580.97;;;28.64
70668;BMP280;58242;51.250;-1.118;2023-03-24T10:31:53;98568.06;;;29.37
70668;BMP280;58242;51.250;-1.118;2023-03-24T10:34:22;98576.13;;;29.60
70668;BMP280;58242;51.250;-1.118;2023-03-24T10:36:50;98565.53;;;29.72
70668;BMP280;58242;51.250;-1.118;2023-03-24T10:39:16;98552.44;;;29.68
70668;BMP280;58242;51.250;-1.118;2023-03-24T10:41:42;98554.88;;;30.04
70668;BMP280;58242;51.250;-1.118;2023-03-24T10:44:09;98559.31;;;30.46
70668;BMP280;58242;51.250;-1.118;2023-03-24T10:46:46;98562.47;;;30.94
70668;BMP280;58242;51.250;-1.118;2023-03-24T10:51:44;98563.69;;;31.70
70668;BMP280;58242;51.250;-1.118;2023-03-24T10:54:24;98575.69;;;31.67
70668;BMP280;58242;51.250;-1.118;2023-03-24T10:56:51;98567.84;;;31.08
70668;BMP280;58242;51.250;-1.118;2023-03-24T10:59:29;98568.50;;;29.88
70668;BMP280;58242;51.250;-1.118;2023-03-24T11:01:59;98587.69;;;28.63
70668;BMP280;58242;51.250;-1.118;2023-03-24T11:04:25;98583.56;;;27.43
70668;BMP280;58242;51.250;-1.118;2023-03-24T11:07:17;98587.72;;;26.17
70668;BMP280;58242;51.250;-1.118;2023-03-24T11:10:03;98568.78;;;25.14
70668;BMP280;58242;51.250;-1.118;2023-03-24T11:12:30;98578.06;;;24.40
70668;BMP280;58242;51.250;-1.118;2023-03-24T11:17:45;98550.94;;;24.16
70668;BMP280;58242;51.250;-1.118;2023-03-24T11:20:16;98549.28;;;23.97
70668;BMP280;58242;51.250;-1.118;2023-03-24T11:22:53;98551.50;;;24.11
70668;BMP280;58242;51.250;-1.118;2023-03-24T11:25:24;98562.72;;;24.34
70668;BMP280;58242;51.250;-1.118;2023-03-24T11:27:51;98562.38;;;24.32
70668;BMP280;58242;51.250;-1.118;2023-03-24T11:30:17;98567.91;;;24.40
70668;BMP280;58242;51.250;-1.118;2023-03-24T11:32:46;98559.84;;;24.37
70668;BMP280;58242;51.250;-1.118;2023-03-24T11:35:15;98555.31;;;24.13
70668;BMP280;58242;51.250;-1.118;2023-03-24T11:37:44;98552.34;;;23.78
70668;BMP280;58242;51.250;-1.118;2023-03-24T11:42:41;98585.81;;;22.88
70668;BMP280;58242;51.250;-1.118;2023-03-24T11:47:45;98581.91;;;21.73
70668;BMP280;58242;51.250;-1.118;2023-03-24T11:50:16;98579.38;;;21.39
70668;BMP280;58242;51.250;-1.118;2023-03-24T11:52:48;98568.88;;;21.09
70668;BMP280;58242;51.250;-1.118;2023-03-24T11:58:00;98588.34;;;20.58
70668;BMP280;58242;51.250;-1.118;2023-03-24T12:00:32;98584.34;;;20.31
70668;BMP280;58242;51.250;-1.118;2023-03-24T12:03:29;98570.47;;;20.07
70668;BMP280;58242;51.250;-1.118;2023-03-24T12:11:57;98558.34;;;22.34
70668;BMP280;58242;51.250;-1.118;2023-03-24T12:17:22;98552.78;;;23.98
70668;BMP280;58242;51.250;-1.118;2023-03-24T12:20:07;98542.59;;;23.56
70668;BMP280;58242;51.250;-1.118;2023-03-24T12:22:49;98520.91;;;22.75
70668;BMP280;58242;51.250;-1.118;2023-03-24T12:33:29;98526.63;;;21.92
70668;BMP280;58242;51.250;-1.118;2023-03-24T12:36:10;98511.44;;;22.30
70668;BMP280;58242;51.250;-1.118;2023-03-24T12:44:18;98510.44;;;24.52
70668;BMP280;58242;51.250;-1.118;2023-03-24T12:49:51;98491.44;;;24.79
70668;BMP280;58242;51.250;-1.118;2023-03-24T12:54:54;98499.88;;;25.45
70668;BMP280;58242;51.250;-1.118;2023-03-24T12:57:31;98510.00;;;26.06
70668;BMP280;58242;51.250;-1.118;2023-03-24T13:00:03;98523.75;;;25.89
70668;BMP280;58242;51.250;-1.118;2023-03-24T13:05:06;98528.13;;;24.60
70668;BMP280;58242;51.250;-1.118;2023-03-24T13:07:35;98518.75;;;24.11
70668;BMP280;58242;51.250;-1.118;2023-03-24T13:10:48;98506.94;;;23.72
70668;BMP280;58242;51.250;-1.118;2023-03-24T13:13:18;98510.94;;;23.38
70668;BMP280;58242;51.250;-1.118;2023-03-24T13:15:52;98507.03;;;23.27
70668;BMP280;58242;51.250;-1.118;2023-03-24T13:18:35;98487.91;;;23.39
70668;BMP280;58242;51.250;-1.118;2023-03-24T13:21:14;98487.28;;;23.56
70668;BMP280;58242;51.250;-1.118;2023-03-24T13:24:10;98487.53;;;23.28
70668;BMP280;58242;51.250;-1.118;2023-03-24T13:29:11;98489.69;;;22.88
70668;BMP280;58242;51.250;-1.118;2023-03-24T13:31:43;98483.66;;;22.72
70668;BMP280;58242;51.250;-1.118;2023-03-24T13:34:44;98493.09;;;22.80
70668;BMP280;58242;51.250;-1.118;2023-03-24T13:37:14;98493.41;;;22.81
70668;BMP280;58242;51.250;-1.118;2023-03-24T13:39:43;98492.72;;;23.02
70668;BMP280;58242;51.250;-1.118;2023-03-24T13:42:28;98498.44;;;22.83
70668;BMP280;58242;51.250;-1.118;2023-03-24T13:44:54;98491.16;;;22.68
70668;BMP280;58242;51.250;-1.118;2023-03-24T13:47:19;98491.84;;;23.05
70668;BMP280;58242;51.250;-1.118;2023-03-24T13:49:54;98478.53;;;23.61
70668;BMP280;58242;51.250;-1.118;2023-03-24T13:52:36;98470.66;;;24.13
70668;BMP280;58242;51.250;-1.118;2023-03-24T13:55:09;98472.75;;;24.77
70668;BMP280;58242;51.250;-1.118;2023-03-24T13:57:40;98468.47;;;24.76
70668;BMP280;58242;51.250;-1.118;2023-03-24T14:10:47;98458.34;;;25.55
70668;BMP280;58242;51.250;-1.118;2023-03-24T14:15:57;98467.00;;;25.89
70668;BMP280;58242;51.250;-1.118;2023-03-24T14:26:11;98491.56;;;24.37
70668;BMP280;58242;51.250;-1.118;2023-03-24T14:28:39;98474.84;;;23.97
70668;BMP280;58242;51.250;-1.118;2023-03-24T14:31:13;98488.25;;;23.62
70668;BMP280;58242;51.250;-1.118;2023-03-24T14:36:25;98469.75;;;22.91
70668;BMP280;58242;51.250;-1.118;2023-03-24T14:38:55;98481.81;;;22.57
70668;BMP280;58242;51.250;-1.118;2023-03-24T14:41:29;98470.13;;;22.32
70668;BMP280;58242;51.250;-1.118;2023-03-24T14:43:59;98467.75;;;22.22
70668;BMP280;58242;51.250;-1.118;2023-03-24T14:46:41;98456.63;;;22.16
70668;BMP280;58242;51.250;-1.118;2023-03-24T14:52:11;98465.25;;;22.27
70668;BMP280;58242;51.250;-1.118;2023-03-24T14:54:47;98482.34;;;22.15
70668;BMP280;58242;51.250;-1.118;2023-03-24T14:57:27;98474.28;;;22.00
70668;BMP280;58242;51.250;-1.118;2023-03-24T15:02:51;98488.56;;;21.76
70668;BMP280;58242;51.250;-1.118;2023-03-24T15:07:58;98468.03;;;21.35
70668;BMP280;58242;51.250;-1.118;2023-03-24T15:10:24;98466.63;;;21.15
70668;BMP280;58242;51.250;-1.118;2023-03-24T15:12:50;98457.81;;;20.96
70668;BMP280;58242;51.250;-1.118;2023-03-24T15:15:17;98446.84;;;20.99
70668;BMP280;58242;51.250;-1.118;2023-03-24T15:17:44;98451.97;;;21.13
70668;BMP280;58242;51.250;-1.118;2023-03-24T15:20:28;98439.84;;;21.29
70668;BMP280;58242;51.250;-1.118;2023-03-24T15:22:54;98440.69;;;21.54
70668;BMP280;58242;51.250;-1.118;2023-03-24T15:25:27;98444.41;;;21.72
70668;BMP280;58242;51.250;-1.118;2023-03-24T15:27:54;98442.16;;;21.83
70668;BMP280;58242;51.250;-1.118;2023-03-24T15:30:20;98453.47;;;21.93
70668;BMP280;58242;51.250;-1.118;2023-03-24T15:32:45;98442.50;;;21.85
70668;BMP280;58242;51.250;-1.118;2023-03-24T15:35:15;98436.06;;;21.91
70668;BMP280;58242;51.250;-1.118;2023-03-24T15:37:42;98431.72;;;21.93
70668;BMP280;58242;51.250;-1.118;2023-03-24T15:42:50;98439.03;;;21.57
70668;BMP280;58242;51.250;-1.118;2023-03-24T15:45:30;98442.53;;;21.17
70668;BMP280;58242;51.250;-1.118;2023-03-24T15:47:57;98444.19;;;20.84
70668;BMP280;58242;51.250;-1.118;2023-03-24T15:50:33;98449.00;;;20.49
70668;BMP280;58242;51.250;-1.118;2023-03-24T15:53:01;98460.56;;;20.18
70668;BMP280;58242;51.250;-1.118;2023-03-24T15:55:35;98501.06;;;19.75
70668;BMP280;58242;51.250;-1.118;2023-03-24T15:58:19;98508.06;;;19.35
70668;BMP280;58242;51.250;-1.118;2023-03-24T16:00:46;98510.31;;;18.98
70668;BMP280;58242;51.250;-1.118;2023-03-24T16:03:12;98501.34;;;18.56
70668;BMP280;58242;51.250;-1.118;2023-03-24T16:05:48;98498.56;;;18.12
70668;BMP280;58242;51.250;-1.118;2023-03-24T16:08:31;98500.22;;;17.73
70668;BMP280;58242;51.250;-1.118;2023-03-24T16:11:04;98500.22;;;17.44
70668;BMP280;58242;51.250;-1.118;2023-03-24T16:13:32;98476.91;;;17.24
70668;BMP280;58242;51.250;-1.118;2023-03-24T16:16:00;98478.25;;;17.10
70668;BMP280;58242;51.250;-1.118;2023-03-24T16:18:33;98485.31;;;16.97
70668;BMP280;58242;51.250;-1.118;2023-03-24T16:20:59;98518.56;;;16.91
70668;BMP280;58242;51.250;-1.118;2023-03-24T16:23:25;98556.34;;;16.87
70668;BMP280;58242;51.250;-1.118;2023-03-24T16:25:51;98542.22;;;16.73